world map with LLW marked

LLW - Airport

This information may not be accurate or current and is not valid for navigation or flight planning. No warranty of fitness for any purpose is made or implied.

flag of Malawi

Donate via PayPal

Additional information is available on the NEW Great Circle Mapper

Location
City:  Lilongwe, Malawi
Name:Kumuzu International Airport
ICAO / IATA:FWKI / LLW

Details
Type:Airport (Aerodrome, Airfield)
Use:Public/Civil
Latitude:13°47'22"S (-13.789377)
Longitude:33°46'52"E (33.781000)
Datum:WGS 1984
Elevation:4035 ft (1230 m)
Runways:1
Longest:11614 × 148 ft (3540 × 45 m)

Time
Timezone:UTC+2 (DST+4)
Local Time:

Weather
METAR:FWKI  161400Z 09009KT 9999 FEW045 30/09 Q1018 NOSIG
TAF:FWKI  (expired)

Related Locations
Nearby:
Farthest:ITO: 11730 mi / 18877 km
Hilo [Hilo Intl], Hawaii, HI, US

Find:

   beyond  
but within

Other Information
Maps:
Sources:

  


 


Great Circle Mapper   Great Circle Mapper
Great Circle Mapper FAQ   Great Circle Mapper FAQ
  Karl's Home Page
KLSē   KLSē Home
   GC on Facebook
Airlines of the World   Airlines of the World
Donate via PayPal


Copyright © 2004-2018, Karl L. Swartz. All rights reserved.
All trademarks mentioned herein belong to their respective owners.

Please see credits for attribution and copyright information.

Karl Swartz <karl@kls2.com>
  Powered by FreeBSD
Valid HTML 4.01!
Labeled with ICRA
hCard Microformat
Geo Microformat